Time;durP1;ratioP1;P1;durP2;ratioP2;P2;SDS_P1;SDS_P2;PMS_P1;PMS_P2;Temp;Humidity;BMP_temperature;BMP_pressure;BME280_temperature;BME280_humidity;BME280_pressure;Samples;Min_cycle;Max_cycle;Signal;HPM_P1;HPM_P2
2022/07/05 00:00:18;;;;;;;4.50;1.25;;;;;;;-144.47;39.46;53096.41;5048967;28;20438;-67
2022/07/05 00:02:43;;;;;;;3.08;1.30;;;;;;;-144.47;39.62;53096.41;5049003;28;20024;-66
2022/07/05 00:05:09;;;;;;;14.27;1.33;;;;;;;-144.47;39.91;53096.41;5048782;28;20130;-67
2022/07/05 00:07:34;;;;;;;2.85;1.23;;;;;;;-144.47;39.80;53086.50;5048273;28;20028;-66
2022/07/05 00:09:59;;;;;;;6.22;1.40;;;;;;;-144.47;39.46;53084.50;5046604;28;20009;-67
2022/07/05 00:12:30;;;;;;;11.15;1.35;;;;;;;-144.47;40.08;53076.56;5034097;28;20021;-67
2022/07/05 00:14:55;;;;;;;3.92;1.25;;;;;;;-144.47;40.21;53082.53;5048727;28;20028;-66
2022/07/05 00:17:21;;;;;;;2.97;1.40;;;;;;;-144.47;40.44;53088.47;5046383;28;20021;-66
2022/07/05 00:19:46;;;;;;;7.50;1.95;;;;;;;-144.47;40.41;53084.50;5051163;28;20414;-67
2022/07/05 00:22:12;;;;;;;5.50;1.30;;;;;;;-144.47;40.36;53070.59;5052085;28;20033;-66
2022/07/05 00:24:37;;;;;;;5.55;1.42;;;;;;;-144.47;40.58;53118.28;5052487;28;20025;-66
2022/07/05 00:27:03;;;;;;;3.05;1.30;;;;;;;-144.47;41.10;53106.34;5051821;28;20033;-65
2022/07/05 00:29:28;;;;;;;5.43;1.20;;;;;;;-144.47;41.50;53114.31;5052587;28;20036;-67
2022/07/05 00:31:54;;;;;;;3.17;1.17;;;;;;;-144.47;41.55;53078.53;5051965;28;20032;-66
2022/07/05 00:34:19;;;;;;;2.83;1.20;;;;;;;-144.47;41.61;53102.38;5051944;28;20052;-69
2022/07/05 00:36:45;;;;;;;6.30;1.58;;;;;;;-144.47;40.93;53130.19;5051616;28;20025;-65
2022/07/05 00:39:11;;;;;;;5.15;1.20;;;;;;;-144.47;40.95;53112.31;5051674;28;20529;-69
2022/07/05 00:41:36;;;;;;;2.85;1.15;;;;;;;-144.47;41.08;53096.41;5050227;28;20379;-66
2022/07/05 00:44:07;;;;;;;4.68;1.35;;;;;;;-144.47;41.50;53114.31;5051761;28;20079;-69
2022/07/05 00:46:33;;;;;;;3.47;1.30;;;;;;;-144.47;41.49;53106.34;5040088;28;20104;-65
2022/07/05 00:48:59;;;;;;;3.50;1.23;;;;;;;-144.47;41.35;53082.53;5043246;28;20017;-67
2022/07/05 00:51:27;;;;;;;5.70;1.45;;;;;;;-144.47;41.33;53126.22;5052099;28;20116;-68
2022/07/05 00:53:52;;;;;;;5.13;1.30;;;;;;;-144.47;41.93;53118.28;5060847;22;20052;-69
2022/07/05 00:56:19;;;;;;;3.72;1.20;;;;;;;-144.47;41.90;53090.47;5039592;28;20029;-67
2022/07/05 00:58:45;;;;;;;6.47;1.65;;;;;;;-144.47;41.92;53106.34;5051133;28;20104;-67
2022/07/05 01:01:11;;;;;;;4.35;1.25;;;;;;;-144.47;41.62;53078.53;5052033;28;20107;-69
2022/07/05 01:03:37;;;;;;;2.65;1.35;;;;;;;-144.47;41.51;53122.25;5050854;28;20060;-69
2022/07/05 01:06:06;;;;;;;5.07;1.92;;;;;;;-144.47;41.80;53058.69;5051087;28;20438;-68
2022/07/05 01:08:32;;;;;;;;;;;;;;;-144.47;41.20;53116.28;5051462;28;20025;-67
2022/07/05 01:10:58;;;;;;;4.07;1.30;;;;;;;-144.47;41.30;53102.38;5050035;28;20285;-69
2022/07/05 01:13:24;;;;;;;5.00;1.65;;;;;;;-144.47;41.35;53124.22;5051492;28;20105;-68
2022/07/05 01:15:50;;;;;;;4.15;1.65;;;;;;;-144.47;41.19;53090.47;5045092;28;20108;-69
2022/07/05 01:18:15;;;;;;;4.25;1.30;;;;;;;-144.47;41.14;53104.38;5049339;28;20103;-67
2022/07/05 01:20:41;;;;;;;3.60;1.30;;;;;;;-144.47;41.29;53098.41;5049718;28;20316;-68
2022/07/05 01:23:07;;;;;;;4.68;1.30;;;;;;;-144.47;41.61;53116.28;5043674;28;20460;-68
2022/07/05 01:25:33;;;;;;;3.88;1.38;;;;;;;-144.47;41.78;53114.31;5027037;28;20573;-69
2022/07/05 01:27:59;;;;;;;2.50;1.10;;;;;;;-144.47;42.06;53074.56;5049586;28;20104;-66
2022/07/05 01:30:25;;;;;;;4.13;1.20;;;;;;;-144.47;42.16;53064.66;5050441;28;20017;-67
2022/07/05 01:32:51;;;;;;;4.63;1.30;;;;;;;-144.47;42.42;53138.13;5049578;28;20363;-70
2022/07/05 01:35:20;;;;;;;3.15;1.45;;;;;;;-144.47;43.17;53114.31;5051199;28;20120;-67
2022/07/05 01:37:47;;;;;;;3.22;1.42;;;;;;;-144.47;43.44;53110.31;5050907;28;20033;-69
2022/07/05 01:40:13;;;;;;;4.38;1.58;;;;;;;-144.47;43.84;53064.66;5050669;28;20104;-68
2022/07/05 01:42:39;;;;;;;7.00;1.50;;;;;;;-144.47;43.99;53106.34;5051044;28;20493;-67
2022/07/05 01:45:05;;;;;;;4.95;1.27;;;;;;;-144.47;44.02;53106.34;5051124;28;20402;-68
2022/07/05 01:47:44;;;;;;;4.97;1.40;;;;;;;-144.47;44.27;53146.09;5050508;28;20032;-68
2022/07/05 01:50:14;;;;;;;18.98;1.48;;;;;;;-144.47;44.56;53124.22;5050902;28;20194;-70
2022/07/05 01:52:43;;;;;;;4.00;1.20;;;;;;;-144.47;44.72;53124.22;5051180;28;20095;-69
2022/07/05 01:55:09;;;;;;;5.40;1.30;;;;;;;-144.47;45.01;53108.34;5037004;28;20041;-68
2022/07/05 01:57:34;;;;;;;4.20;1.40;;;;;;;-144.47;45.06;53130.19;5050506;28;20040;-69
2022/07/05 02:00:00;;;;;;;5.55;1.67;;;;;;;-144.47;45.13;53124.22;5050265;28;20111;-68
2022/07/05 02:02:25;;;;;;;4.53;1.40;;;;;;;-144.47;45.17;53152.03;5050569;28;20478;-67
2022/07/05 02:04:50;;;;;;;4.40;1.30;;;;;;;-144.47;45.06;53142.09;5049977;28;20052;-67
2022/07/05 02:07:16;;;;;;;5.60;1.50;;;;;;;-144.47;44.61;53104.38;5050274;28;20086;-70
2022/07/05 02:09:41;;;;;;;6.95;1.40;;;;;;;-144.47;44.82;53130.19;5049459;28;20099;-67
2022/07/05 02:12:07;;;;;;;6.80;2.08;;;;;;;-144.47;44.98;53120.25;5046155;28;20495;-68
2022/07/05 02:14:32;;;;;;;9.80;2.20;;;;;;;-144.47;45.05;53152.03;5039525;28;20025;-68
2022/07/05 02:16:58;;;;;;;3.85;1.83;;;;;;;-144.47;45.30;53078.53;5042144;28;20025;-68
2022/07/05 02:19:23;;;;;;;4.15;1.70;;;;;;;-144.47;45.52;53134.16;5049833;28;20129;-67
2022/07/05 02:21:49;;;;;;;5.78;1.50;;;;;;;-144.47;45.50;53110.31;5050158;28;20016;-68
2022/07/05 02:24:15;;;;;;;4.93;1.70;;;;;;;-144.47;45.82;53074.56;5049953;28;20028;-68
2022/07/05 02:26:40;;;;;;;4.80;1.80;;;;;;;-144.47;46.03;53122.25;5049684;28;20029;-66
2022/07/05 02:29:05;;;;;;;5.30;1.52;;;;;;;-144.47;46.28;53134.16;5049466;28;20132;-69
2022/07/05 02:31:31;;;;;;;6.85;1.50;;;;;;;-144.47;46.50;53120.25;5049941;28;20582;-68
2022/07/05 02:33:57;;;;;;;6.45;1.52;;;;;;;-144.47;46.73;53124.22;5049578;28;20033;-69
2022/07/05 02:36:23;;;;;;;4.20;1.63;;;;;;;-144.47;46.79;53118.28;5049472;28;20028;-69
2022/07/05 02:38:49;;;;;;;12.23;2.70;;;;;;;-144.47;47.28;53138.13;5049529;28;20043;-69
2022/07/05 02:41:15;;;;;;;3.38;1.60;;;;;;;-144.47;47.81;53146.09;5049760;28;20077;-69
2022/07/05 02:43:40;;;;;;;6.60;2.08;;;;;;;-144.47;48.41;53146.09;5048503;28;20160;-67
2022/07/05 02:46:07;;;;;;;4.25;1.75;;;;;;;-144.47;48.44;53118.28;5046734;28;20609;-67
2022/07/05 02:48:33;;;;;;;5.40;1.73;;;;;;;-144.47;48.86;53124.22;5035945;28;20067;-69
2022/07/05 02:50:59;;;;;;;5.15;1.85;;;;;;;-144.47;49.28;53146.09;5049523;28;20052;-68
2022/07/05 02:53:25;;;;;;;13.13;1.90;;;;;;;-144.47;49.25;53102.38;5049057;28;20103;-69
2022/07/05 02:55:50;;;;;;;28.00;1.90;;;;;;;-144.47;49.28;53126.22;5049349;28;20311;-67
2022/07/05 02:58:16;;;;;;;6.70;1.88;;;;;;;-144.47;49.52;53118.28;5048919;28;20025;-68
2022/07/05 03:00:43;;;;;;;4.25;2.28;;;;;;;-144.47;49.49;53154.03;5049162;28;20118;-69
2022/07/05 03:03:09;;;;;;;9.93;2.45;;;;;;;-144.47;49.53;53102.38;5049159;28;20029;-67
2022/07/05 03:05:34;;;;;;;7.38;1.80;;;;;;;-144.47;49.78;53154.03;5048928;28;20055;-68
2022/07/05 03:08:00;;;;;;;4.22;1.85;;;;;;;-144.47;50.04;53142.09;5048966;28;20032;-67
2022/07/05 03:10:25;;;;;;;4.13;1.60;;;;;;;-144.47;49.89;53146.09;5049115;28;20079;-67
2022/07/05 03:12:51;;;;;;;3.60;1.70;;;;;;;-144.47;49.68;53122.25;5049113;28;20031;-67
2022/07/05 03:15:16;;;;;;;6.57;1.70;;;;;;;-144.47;49.67;53158.00;5047228;28;20033;-69
2022/07/05 03:17:41;;;;;;;5.45;1.95;;;;;;;-144.47;49.85;53136.16;5042814;28;20112;-68
2022/07/05 03:20:08;;;;;;;6.78;3.70;;;;;;;-144.47;49.91;53148.06;5048857;28;20545;-68
2022/07/05 03:22:33;;;;;;;4.57;1.83;;;;;;;-144.47;49.92;53161.97;5040661;28;20017;-68
2022/07/05 03:24:58;;;;;;;5.05;1.95;;;;;;;-144.47;50.15;53130.19;5040311;28;20044;-67
2022/07/05 03:27:24;;;;;;;7.25;2.00;;;;;;;-144.47;50.06;53128.22;5048461;28;20082;-68
2022/07/05 03:29:49;;;;;;;11.65;2.00;;;;;;;-144.47;50.24;53142.09;5049542;28;20437;-68
2022/07/05 03:32:14;;;;;;;4.50;1.80;;;;;;;-144.47;50.40;53146.09;5049077;28;20040;-68
2022/07/05 03:34:40;;;;;;;6.78;1.70;;;;;;;-144.47;50.20;53158.00;5049026;28;20504;-70
2022/07/05 03:37:05;;;;;;;7.57;1.90;;;;;;;-144.47;50.15;53106.34;5047414;28;20359;-69
2022/07/05 03:39:30;;;;;;;8.73;1.85;;;;;;;-144.47;49.95;53167.94;5049224;28;20061;-69
2022/07/05 03:41:56;;;;;;;9.15;2.03;;;;;;;-144.47;50.08;53167.94;5049111;28;20049;-68
2022/07/05 03:44:21;;;;;;;4.45;1.70;;;;;;;-144.47;49.85;53124.22;5048901;28;20068;-69
2022/07/05 03:46:47;;;;;;;5.45;2.03;;;;;;;-144.47;49.77;53163.97;5048804;28;20343;-68
2022/07/05 03:49:12;;;;;;;7.25;1.85;;;;;;;-144.47;49.68;53140.13;5048785;28;20063;-69
2022/07/05 03:51:37;;;;;;;5.05;1.75;;;;;;;-144.47;49.71;53150.06;5048804;28;20025;-67
2022/07/05 03:54:03;;;;;;;4.60;1.88;;;;;;;-144.47;49.57;53185.81;5048135;28;20288;-68
2022/07/05 03:56:29;;;;;;;9.50;2.30;;;;;;;-144.47;49.81;53160.00;5051185;28;20024;-69
2022/07/05 03:58:54;;;;;;;9.07;2.50;;;;;;;-144.47;50.03;53167.94;5052658;28;20031;-66
2022/07/05 04:01:19;;;;;;;7.82;2.08;;;;;;;-144.47;49.75;53120.25;5052668;28;20095;-69
2022/07/05 04:03:45;;;;;;;6.63;2.30;;;;;;;-144.47;50.05;53158.00;5052449;28;20090;-68
2022/07/05 04:06:11;;;;;;;8.95;2.15;;;;;;;-144.47;50.07;53146.09;5052276;28;20029;-67
2022/07/05 04:08:36;;;;;;;8.32;2.30;;;;;;;-144.47;49.86;53158.00;5051670;28;20028;-66
2022/07/05 04:11:02;;;;;;;4.43;2.08;;;;;;;-144.47;49.95;53144.09;5040158;28;20438;-68
2022/07/05 04:13:27;;;;;;;5.95;2.67;;;;;;;-144.47;49.78;53169.91;5042511;28;20028;-67
2022/07/05 04:15:55;;;;;;;5.45;2.55;;;;;;;-144.47;49.53;53146.09;5045637;28;20025;-68
2022/07/05 04:18:21;;;;;;;10.48;2.67;;;;;;;-144.47;49.51;53122.25;5051980;28;20029;-66
2022/07/05 04:20:46;;;;;;;4.78;2.20;;;;;;;-144.47;49.66;53146.09;5050651;28;20036;-68
2022/07/05 04:23:11;;;;;;;6.35;2.53;;;;;;;-144.47;49.58;53146.09;5051094;28;20024;-69
2022/07/05 04:25:37;;;;;;;13.13;2.25;;;;;;;-144.47;49.31;53160.00;5050390;28;20460;-68
2022/07/05 04:28:03;;;;;;;11.05;2.40;;;;;;;-144.47;49.52;53146.09;5051419;28;20072;-67
2022/07/05 04:30:28;;;;;;;12.02;2.58;;;;;;;-144.47;49.68;53160.00;5051973;28;20087;-69
2022/07/05 04:32:54;;;;;;;15.68;2.70;;;;;;;-144.47;49.53;53163.97;5051958;28;20455;-68
2022/07/05 04:35:20;;;;;;;7.30;2.35;;;;;;;-144.47;49.96;53142.09;5051352;28;20029;-69
2022/07/05 04:37:45;;;;;;;11.68;2.58;;;;;;;-144.47;49.90;53167.94;5051990;28;20178;-69
2022/07/05 04:40:12;;;;;;;8.05;3.45;;;;;;;-144.47;49.88;53134.16;5051622;28;20506;-70
2022/07/05 04:42:38;;;;;;;14.60;2.58;;;;;;;-144.47;49.68;53197.72;5051233;28;20394;-68
2022/07/05 04:45:05;;;;;;;6.28;2.42;;;;;;;-144.47;50.03;53160.00;5049383;28;20021;-70
2022/07/05 04:47:30;;;;;;;8.02;2.50;;;;;;;-144.47;49.87;53136.16;5040879;28;20017;-69
2022/07/05 04:49:57;;;;;;;15.90;3.38;;;;;;;-144.47;50.08;53126.22;5046058;28;20020;-68
2022/07/05 04:52:23;;;;;;;16.75;2.83;;;;;;;-144.47;50.05;53118.28;5050438;28;20248;-68
2022/07/05 04:54:48;;;;;;;7.32;2.42;;;;;;;-144.47;49.93;53138.13;5049464;28;20025;-69
2022/07/05 04:57:14;;;;;;;8.27;2.55;;;;;;;-144.47;49.87;53126.22;5049480;28;20032;-69
2022/07/05 04:59:39;;;;;;;9.38;2.58;;;;;;;-144.47;50.58;53152.03;5045201;28;20035;-64
2022/07/05 05:02:05;;;;;;;7.18;2.70;;;;;;;-144.47;50.61;53165.94;5044540;28;20025;-69
2022/07/05 05:04:31;;;;;;;10.02;2.95;;;;;;;-144.47;50.68;53150.06;5045735;28;20112;-68
2022/07/05 05:06:56;;;;;;;5.50;2.63;;;;;;;-144.47;50.88;53118.28;5046188;28;20480;-65
2022/07/05 05:09:22;;;;;;;16.30;2.88;;;;;;;-144.47;51.20;53150.06;5047171;28;20020;-64
2022/07/05 05:11:47;;;;;;;7.40;2.80;;;;;;;-144.47;51.23;53189.78;5045398;28;20025;-68
2022/07/05 05:14:13;;;;;;;7.00;2.47;;;;;;;-144.47;51.50;53140.13;5050353;28;20021;-68
2022/07/05 05:16:38;;;;;;;9.10;2.95;;;;;;;-144.47;51.28;53154.03;5039795;28;20409;-67
2022/07/05 05:19:04;;;;;;;7.78;2.70;;;;;;;-144.47;51.41;53150.06;5031623;28;20037;-68
2022/07/05 05:21:29;;;;;;;13.50;4.05;;;;;;;-144.47;51.56;53179.84;5038260;28;20029;-68
2022/07/05 05:23:55;;;;;;;7.57;2.90;;;;;;;-144.47;51.72;53152.03;5044402;28;20036;-68
2022/07/05 05:26:20;;;;;;;8.48;2.83;;;;;;;-144.47;51.79;53163.97;5049934;28;20020;-66
2022/07/05 05:28:45;;;;;;;9.82;2.55;;;;;;;-144.47;51.45;53177.88;5045831;28;20029;-66
2022/07/05 05:31:11;;;;;;;6.63;2.50;;;;;;;-144.47;51.07;53138.13;5040889;28;20075;-65
2022/07/05 05:33:36;;;;;;;8.80;2.75;;;;;;;-144.47;50.95;53183.81;5043317;28;20034;-68
2022/07/05 05:36:02;;;;;;;11.52;4.97;;;;;;;-144.47;50.82;53169.91;5042065;28;20021;-67
2022/07/05 05:38:27;;;;;;;6.40;3.00;;;;;;;-144.47;50.95;53122.25;5041504;28;20021;-67
2022/07/05 05:40:53;;;;;;;8.32;3.33;;;;;;;-144.47;50.97;53169.91;5044282;28;20414;-65
2022/07/05 05:43:18;;;;;;;10.57;3.13;;;;;;;-144.47;51.34;53142.09;5042261;28;20025;-66
2022/07/05 05:45:44;;;;;;;7.72;2.92;;;;;;;-144.47;51.64;53150.06;5049166;28;20036;-65
2022/07/05 05:48:09;;;;;;;10.18;2.60;;;;;;;-144.47;51.92;53150.06;5046920;28;20033;-70
2022/07/05 05:50:38;;;;;;;16.20;3.13;;;;;;;-144.47;51.67;53161.97;5040004;28;20532;-64
2022/07/05 05:53:04;;;;;;;7.78;2.90;;;;;;;-144.47;51.89;53140.13;5043517;28;20024;-66
2022/07/05 05:55:30;;;;;;;4.55;2.40;;;;;;;-144.47;51.64;53181.84;5041987;28;20024;-67
2022/07/05 05:57:57;;;;;;;16.77;3.05;;;;;;;-144.47;51.72;53156.00;5039412;28;20047;-68
2022/07/05 06:00:23;;;;;;;10.98;3.33;;;;;;;-144.47;51.43;53154.03;5037827;28;20021;-67
2022/07/05 06:02:50;;;;;;;9.73;2.97;;;;;;;-144.47;51.28;53142.09;5032845;28;20040;-68
2022/07/05 06:05:16;;;;;;;8.63;3.33;;;;;;;-144.47;51.30;53150.06;5039795;28;20185;-68
2022/07/05 06:07:47;;;;;;;9.30;3.30;;;;;;;-144.47;51.05;53173.88;5048697;28;20017;-65
2022/07/05 06:10:20;;;;;;;9.27;3.25;;;;;;;-144.47;51.02;53167.94;5042681;28;20070;-68
2022/07/05 06:12:46;;;;;;;8.63;3.00;;;;;;;-144.47;51.02;53154.03;5041491;28;20111;-67
2022/07/05 06:15:11;;;;;;;4.78;2.70;;;;;;;-144.47;50.53;53156.00;5035805;28;20428;-66
2022/07/05 06:17:37;;;;;;;8.05;3.08;;;;;;;-144.47;50.20;53179.84;5042763;28;20028;-67
2022/07/05 06:20:10;;;;;;;11.23;3.28;;;;;;;-144.47;50.08;53160.00;5041026;28;20486;-65
2022/07/05 06:22:36;;;;;;;7.38;3.10;;;;;;;-144.47;49.43;53150.06;5040545;28;20028;-67
2022/07/05 06:25:03;;;;;;;12.75;3.25;;;;;;;-144.47;49.08;53132.19;5036193;28;20032;-68
2022/07/05 06:27:28;;;;;;;11.27;3.35;;;;;;;-144.47;48.89;53130.19;5038163;28;20500;-67
2022/07/05 06:29:53;;;;;;;11.27;3.30;;;;;;;-144.47;48.56;53118.28;5041736;28;20017;-65
2022/07/05 06:32:19;;;;;;;9.43;2.70;;;;;;;-144.47;48.46;53171.91;5032276;28;20036;-67
2022/07/05 06:34:44;;;;;;;11.35;3.22;;;;;;;-144.47;48.50;53167.94;5032535;28;20030;-67
2022/07/05 06:37:09;;;;;;;8.68;2.72;;;;;;;-144.47;48.22;53185.81;5033493;28;20444;-68
2022/07/05 06:39:35;;;;;;;6.28;2.75;;;;;;;-144.47;47.60;53136.16;5031445;28;20024;-65
2022/07/05 06:42:00;;;;;;;12.90;2.78;;;;;;;-144.47;47.51;53126.22;5028348;28;20080;-65
2022/07/05 06:44:26;;;;;;;7.35;2.40;;;;;;;-144.47;47.33;53126.22;5039744;28;20410;-67
2022/07/05 06:46:51;;;;;;;10.88;2.53;;;;;;;-144.47;47.07;53110.31;5034265;28;20067;-66
2022/07/05 06:49:16;;;;;;;7.75;2.63;;;;;;;-144.47;47.03;53128.22;5036693;28;20548;-67
2022/07/05 06:51:42;;;;;;;9.98;2.58;;;;;;;-144.47;47.08;53110.31;5044942;28;20040;-67
2022/07/05 06:54:07;;;;;;;9.52;2.63;;;;;;;-144.47;47.04;53124.22;5043548;28;20059;-65
2022/07/05 06:56:32;;;;;;;10.02;2.60;;;;;;;-144.47;46.78;53126.22;5042152;28;20085;-67
2022/07/05 06:58:58;;;;;;;9.88;2.45;;;;;;;-144.47;46.42;53104.38;5058457;22;20544;-70
2022/07/05 07:01:23;;;;;;;9.50;2.92;;;;;;;-144.47;46.50;53152.03;5052552;28;20486;-66
2022/07/05 07:03:49;;;;;;;7.68;3.13;;;;;;;-144.47;46.18;53106.34;5048438;28;20412;-70
2022/07/05 07:06:15;;;;;;;7.53;3.10;;;;;;;-144.47;46.30;53142.09;5040046;28;20104;-71
2022/07/05 07:11:24;;;;;;;7.47;2.55;;;;;;;-144.47;46.12;53138.13;5027891;28;20265;-68
2022/07/05 07:13:49;;;;;;;3.97;2.40;;;;;;;-144.47;46.35;53102.38;5027014;28;20467;-68
2022/07/05 07:16:15;;;;;;;8.93;2.45;;;;;;;-144.47;46.79;53114.31;5040642;28;20191;-70
2022/07/05 07:18:40;;;;;;;7.75;2.55;;;;;;;-144.47;46.82;53108.34;5059647;28;20182;-66
2022/07/05 07:21:05;;;;;;;4.85;2.13;;;;;;;-144.47;46.62;53148.06;5047177;28;20075;-67
2022/07/05 07:23:31;;;;;;;6.13;2.60;;;;;;;-144.47;46.12;53124.22;5053454;28;20020;-72
2022/07/05 07:25:56;;;;;;;12.65;2.75;;;;;;;-144.47;46.45;53108.34;5053079;28;20543;-73
2022/07/05 07:28:21;;;;;;;9.13;2.33;;;;;;;-144.47;46.84;53108.34;5056747;28;20020;-67
2022/07/05 07:30:47;;;;;;;8.32;2.10;;;;;;;-144.47;46.91;53094.44;5049478;28;20096;-69
2022/07/05 07:33:12;;;;;;;7.88;2.30;;;;;;;-144.47;46.72;53128.22;5043398;28;20247;-67
2022/07/05 07:35:37;;;;;;;7.07;2.75;;;;;;;-144.47;46.52;53118.28;5049508;28;20020;-70
2022/07/05 07:38:03;;;;;;;9.90;2.88;;;;;;;-144.47;46.62;53088.47;5043899;28;20044;-67
2022/07/05 07:40:28;;;;;;;10.57;2.58;;;;;;;-144.47;46.60;53130.19;5038396;28;20021;-70
2022/07/05 07:42:54;;;;;;;5.88;2.42;;;;;;;-144.47;46.21;53118.28;5033886;28;20033;-68
2022/07/05 07:45:19;;;;;;;15.80;2.70;;;;;;;-144.47;46.17;53106.34;5035983;28;20029;-70
2022/07/05 07:47:44;;;;;;;10.15;2.72;;;;;;;-144.47;46.13;53114.31;5050911;28;20404;-70
2022/07/05 07:50:10;;;;;;;10.60;2.33;;;;;;;-144.47;45.17;53092.44;5033743;28;20029;-72
2022/07/05 07:52:37;;;;;;;13.98;4.05;;;;;;;-144.47;44.71;53080.53;5041658;28;20052;-69
2022/07/05 07:55:04;;;;;;;8.25;2.50;;;;;;;-144.47;44.26;53066.63;5044034;28;20037;-68
2022/07/05 07:57:29;;;;;;;6.82;1.98;;;;;;;-144.47;44.28;53106.34;5031897;28;20055;-70
2022/07/05 07:59:55;;;;;;;10.15;2.10;;;;;;;-144.47;44.06;53134.16;5030563;28;20049;-70
2022/07/05 08:02:22;;;;;;;7.15;2.60;;;;;;;-144.47;43.68;53114.31;5040341;28;20561;-66
2022/07/05 08:04:49;;;;;;;20.70;2.60;;;;;;;-144.47;43.64;53112.31;5049528;28;20050;-70
2022/07/05 08:07:14;;;;;;;7.47;2.28;;;;;;;-144.47;43.54;53078.53;5054750;28;20103;-68
2022/07/05 08:09:39;;;;;;;5.20;2.25;;;;;;;-144.47;43.36;53100.41;5050946;28;20507;-68
2022/07/05 08:12:06;;;;;;;8.55;2.30;;;;;;;-144.47;43.22;53138.13;5049436;28;20021;-70
2022/07/05 08:14:31;;;;;;;14.85;2.80;;;;;;;-144.47;43.35;53070.59;5053535;28;20116;-70
2022/07/05 08:16:58;;;;;;;7.97;1.95;;;;;;;-144.47;42.97;53146.09;5047635;28;20028;-69
2022/07/05 08:22:07;;;;;;;10.68;1.80;;;;;;;-144.47;41.98;53116.28;5041463;28;20437;-69
2022/07/05 08:24:33;;;;;;;6.13;1.58;;;;;;;-144.47;39.91;53086.50;5070434;28;20274;-67
2022/07/05 08:26:58;;;;;;;11.80;1.77;;;;;;;-144.47;40.23;53064.66;5059050;28;20040;-71
2022/07/05 08:29:24;;;;;;;8.50;2.13;;;;;;;-144.47;40.43;53108.34;5039703;28;20048;-72
2022/07/05 08:31:51;;;;;;;10.95;1.80;;;;;;;-144.47;40.75;53084.50;5044568;28;20037;-71
2022/07/05 08:34:18;;;;;;;10.43;2.10;;;;;;;-144.47;40.78;53086.50;5031964;28;20116;-69
2022/07/05 08:36:44;;;;;;;5.78;2.03;;;;;;;-144.47;40.56;53080.53;5036232;28;20097;-70
2022/07/05 08:39:09;;;;;;;9.00;2.00;;;;;;;-144.47;40.08;53058.69;5039558;28;20268;-70
2022/07/05 08:41:42;;;;;;;11.55;2.15;;;;;;;-144.47;39.94;53078.53;5050096;28;20471;-68
2022/07/05 08:44:08;;;;;;;9.52;1.90;;;;;;;-144.47;39.60;53062.66;5050204;28;20477;-69
2022/07/05 08:46:38;;;;;;;6.28;1.60;;;;;;;-144.47;39.17;53048.75;5042334;28;20021;-66
2022/07/05 08:49:07;;;;;;;5.75;1.80;;;;;;;-144.47;38.60;53052.72;5050010;28;20163;-70
2022/07/05 08:51:36;;;;;;;4.30;1.75;;;;;;;-144.47;38.67;53052.72;5051532;28;20021;-71
2022/07/05 08:54:02;;;;;;;6.55;1.80;;;;;;;-144.47;39.12;53056.69;5052440;28;20123;-71
2022/07/05 08:56:29;;;;;;;8.30;3.42;;;;;;;-144.47;39.17;53072.59;5059539;28;20036;-68
2022/07/05 08:58:54;;;;;;;7.75;1.75;;;;;;;-144.47;39.23;53078.53;5056220;28;20025;-70
2022/07/05 09:01:20;;;;;;;7.47;1.90;;;;;;;-144.47;38.80;53090.47;5057247;28;20041;-71
2022/07/05 09:03:48;;;;;;;5.25;1.58;;;;;;;-144.47;38.28;53036.84;5039111;28;20108;-68
2022/07/05 09:06:17;;;;;;;5.22;2.20;;;;;;;-144.47;37.89;53054.72;5058682;28;20045;-67
2022/07/05 09:08:42;;;;;;;5.70;1.73;;;;;;;-144.47;37.60;53050.75;5047138;28;20517;-69
2022/07/05 09:11:11;;;;;;;6.97;1.80;;;;;;;-144.47;37.72;53036.84;5048030;28;20040;-70
2022/07/05 09:13:40;;;;;;;8.23;1.77;;;;;;;-144.47;37.29;53076.56;5036244;28;20494;-66
2022/07/05 09:16:06;;;;;;;5.85;1.65;;;;;;;-144.47;37.04;53036.84;5047809;28;20118;-68
2022/07/05 09:18:52;;;;;;;8.55;1.52;;;;;;;-144.47;36.80;53044.78;5056276;28;20290;-70
2022/07/05 09:21:18;;;;;;;5.40;1.60;;;;;;;-144.47;36.30;53044.78;5048452;28;20017;-69
2022/07/05 09:24:19;;;;;;;8.68;1.58;;;;;;;-144.47;36.44;53046.75;5048989;28;20025;-67
2022/07/05 09:26:48;;;;;;;8.38;2.00;;;;;;;-144.47;36.06;53044.78;5006316;28;20121;-68
2022/07/05 09:29:19;;;;;;;5.82;1.48;;;;;;;-144.47;35.65;53070.59;5044721;28;20036;-67
2022/07/05 09:31:48;;;;;;;12.65;1.95;;;;;;;-144.47;36.28;53020.94;5059623;28;20029;-67
2022/07/05 09:34:20;;;;;;;9.15;2.25;;;;;;;-144.47;35.61;53040.81;5048777;28;20037;-67
2022/07/05 09:36:51;;;;;;;4.38;1.50;;;;;;;-144.47;35.06;53020.94;5044840;28;20142;-67
2022/07/05 09:39:18;;;;;;;6.82;2.00;;;;;;;-144.47;34.23;53009.03;5048405;28;20151;-67
2022/07/05 09:41:44;;;;;;;6.30;1.45;;;;;;;-144.47;34.33;53032.88;5048751;28;20104;-68
2022/07/05 09:44:09;;;;;;;5.82;1.60;;;;;;;-144.47;34.62;53070.59;5038520;28;20040;-67
2022/07/05 09:46:34;;;;;;;9.63;1.63;;;;;;;-144.47;34.29;53036.84;5054699;28;20068;-67
2022/07/05 09:49:00;;;;;;;7.82;1.30;;;;;;;-144.47;35.05;53034.84;5048805;28;20032;-69
2022/07/05 09:51:26;;;;;;;7.75;2.05;;;;;;;-144.47;35.47;53036.84;5058649;28;20039;-68
2022/07/05 09:53:58;;;;;;;15.90;1.90;;;;;;;-144.47;35.77;53048.75;5053865;28;20055;-69
2022/07/05 09:56:26;;;;;;;5.38;1.48;;;;;;;-144.47;35.67;53046.75;5028519;28;20028;-68
2022/07/05 09:58:51;;;;;;;;;;;;;;;-144.47;35.90;53058.69;5048166;28;20375;-68
2022/07/05 10:01:31;;;;;;;7.35;1.50;;;;;;;-144.47;35.97;53022.94;5046448;28;20436;-68
2022/07/05 10:04:00;;;;;;;9.63;1.95;;;;;;;-144.47;35.66;53028.88;5028451;28;20029;-69
2022/07/05 10:06:26;;;;;;;5.75;1.70;;;;;;;-144.47;35.14;52999.09;5037961;28;20292;-70
2022/07/05 10:08:55;;;;;;;17.75;1.80;;;;;;;-144.47;34.00;53028.88;5050901;28;20028;-67
2022/07/05 10:11:22;;;;;;;6.43;1.80;;;;;;;-144.47;34.07;53034.84;5034034;28;20029;-66
2022/07/05 10:13:52;;;;;;;2.88;1.40;;;;;;;-144.47;33.52;53030.88;5049129;28;20059;-68
2022/07/05 10:16:19;;;;;;;7.38;1.88;;;;;;;-144.47;33.08;53024.91;5036248;28;20025;-70
2022/07/05 10:18:46;;;;;;;4.72;1.35;;;;;;;-144.47;32.62;53013.00;5043840;28;20030;-69
2022/07/05 10:21:14;;;;;;;5.18;1.80;;;;;;;-144.47;32.78;53011.00;5042939;28;20443;-66
2022/07/05 10:23:43;;;;;;;10.50;2.13;;;;;;;-144.47;32.35;53046.75;5040370;28;20047;-69
2022/07/05 10:26:10;;;;;;;6.00;1.55;;;;;;;-144.47;32.69;53005.06;5039689;28;20115;-69
2022/07/05 10:28:37;;;;;;;3.88;1.48;;;;;;;-144.47;32.88;53016.97;5041256;28;20403;-72
2022/07/05 10:31:03;;;;;;;9.85;1.20;;;;;;;-144.47;32.75;53020.94;5039188;28;20017;-69
2022/07/05 10:33:29;;;;;;;9.82;1.52;;;;;;;-144.47;32.70;53030.88;5028145;28;20040;-69
2022/07/05 10:35:56;;;;;;;14.90;2.60;;;;;;;-144.47;32.87;53034.84;5042396;28;20044;-69
2022/07/05 10:38:22;;;;;;;9.43;1.48;;;;;;;-144.47;32.67;53022.94;5048115;28;20052;-69
2022/07/05 10:40:52;;;;;;;4.43;1.40;;;;;;;-144.47;32.24;53022.94;5046857;28;20108;-71
2022/07/05 10:43:21;;;;;;;6.05;1.40;;;;;;;-144.47;32.56;53054.72;5040782;28;20060;-70
2022/07/05 10:45:48;;;;;;;4.65;1.20;;;;;;;-144.47;32.36;53032.88;5049104;28;20064;-71
2022/07/05 10:48:15;;;;;;;6.13;1.90;;;;;;;-144.47;32.10;53007.03;5056090;28;20482;-69
2022/07/05 10:50:44;;;;;;;6.07;1.55;;;;;;;-144.47;32.00;53009.03;5062071;28;20117;-68
2022/07/05 10:53:10;;;;;;;4.43;1.40;;;;;;;-144.47;31.76;53018.97;5048959;28;20055;-68
2022/07/05 10:55:52;;;;;;;6.43;1.60;;;;;;;-144.47;31.79;53026.91;5051580;28;20051;-67
2022/07/05 10:58:19;;;;;;;4.43;1.30;;;;;;;-144.47;31.75;52983.22;5060267;28;20436;-69
2022/07/05 11:00:47;;;;;;;3.00;1.35;;;;;;;-144.47;31.41;52987.19;5044493;28;20064;-72
2022/07/05 11:03:32;;;;;;;5.50;1.25;;;;;;;-144.47;31.40;52983.22;5047366;28;20043;-71
2022/07/05 11:05:58;;;;;;;6.03;1.65;;;;;;;-144.47;31.39;53052.72;5047003;28;20457;-68
2022/07/05 11:08:23;;;;;;;6.80;1.27;;;;;;;-144.47;30.95;53011.00;5038174;28;20045;-71
2022/07/05 11:11:22;;;;;;;7.75;1.92;;;;;;;-144.47;30.99;53015.00;5033752;28;20071;-68
2022/07/05 11:13:48;;;;;;;6.28;1.40;;;;;;;-144.47;31.16;53016.97;5035821;28;20033;-68
2022/07/05 11:16:29;;;;;;;7.63;1.75;;;;;;;-144.47;31.66;53022.94;5048328;28;20044;-70
2022/07/05 11:19:08;;;;;;;8.85;1.42;;;;;;;-144.47;31.74;53030.88;5050048;28;20417;-69